sensor_id;sensor_type;location;lat;lon;timestamp;P1;durP1;ratioP1;P2;durP2;ratioP2
18695;SDS011;22617;43.690;27.956;2023-03-16T00:00:40;32.17;;;14.30;;
18695;SDS011;22617;43.690;27.956;2023-03-16T00:05:46;38.17;;;15.37;;
18695;SDS011;22617;43.690;27.956;2023-03-16T00:10:50;31.30;;;15.47;;
18695;SDS011;22617;43.690;27.956;2023-03-16T00:15:55;29.53;;;13.53;;
18695;SDS011;22617;43.690;27.956;2023-03-16T00:21:02;26.13;;;13.40;;
18695;SDS011;22617;43.690;27.956;2023-03-16T00:26:06;34.07;;;14.23;;
18695;SDS011;22617;43.690;27.956;2023-03-16T00:31:11;31.00;;;14.30;;
18695;SDS011;22617;43.690;27.956;2023-03-16T00:36:17;28.10;;;13.97;;
18695;SDS011;22617;43.690;27.956;2023-03-16T00:41:20;32.40;;;13.63;;
18695;SDS011;22617;43.690;27.956;2023-03-16T00:46:25;33.93;;;14.43;;
18695;SDS011;22617;43.690;27.956;2023-03-16T00:51:30;33.63;;;14.10;;
18695;SDS011;22617;43.690;27.956;2023-03-16T00:56:34;26.93;;;13.67;;
18695;SDS011;22617;43.690;27.956;2023-03-16T01:01:38;35.30;;;13.63;;
18695;SDS011;22617;43.690;27.956;2023-03-16T01:06:44;27.50;;;12.57;;
18695;SDS011;22617;43.690;27.956;2023-03-16T01:11:48;34.03;;;14.57;;
18695;SDS011;22617;43.690;27.956;2023-03-16T01:16:54;33.07;;;13.47;;
18695;SDS011;22617;43.690;27.956;2023-03-16T01:21:59;28.97;;;12.87;;
18695;SDS011;22617;43.690;27.956;2023-03-16T01:27:06;30.03;;;13.47;;
18695;SDS011;22617;43.690;27.956;2023-03-16T01:32:11;27.27;;;13.40;;
18695;SDS011;22617;43.690;27.956;2023-03-16T01:37:17;32.40;;;14.00;;
18695;SDS011;22617;43.690;27.956;2023-03-16T01:42:44;32.50;;;12.93;;
18695;SDS011;22617;43.690;27.956;2023-03-16T01:47:49;29.73;;;12.57;;
18695;SDS011;22617;43.690;27.956;2023-03-16T01:52:54;32.30;;;14.83;;
18695;SDS011;22617;43.690;27.956;2023-03-16T01:57:58;32.07;;;14.10;;
18695;SDS011;22617;43.690;27.956;2023-03-16T02:03:03;26.10;;;12.80;;
18695;SDS011;22617;43.690;27.956;2023-03-16T02:08:17;30.10;;;12.70;;
18695;SDS011;22617;43.690;27.956;2023-03-16T02:13:24;26.30;;;12.60;;
18695;SDS011;22617;43.690;27.956;2023-03-16T02:18:30;25.30;;;12.60;;
18695;SDS011;22617;43.690;27.956;2023-03-16T02:23:36;26.80;;;13.20;;
18695;SDS011;22617;43.690;27.956;2023-03-16T02:28:40;29.87;;;13.13;;
18695;SDS011;22617;43.690;27.956;2023-03-16T02:33:53;31.40;;;11.87;;
18695;SDS011;22617;43.690;27.956;2023-03-16T02:38:58;30.17;;;12.30;;
18695;SDS011;22617;43.690;27.956;2023-03-16T02:44:06;40.57;;;13.17;;
18695;SDS011;22617;43.690;27.956;2023-03-16T02:49:17;33.23;;;12.30;;
18695;SDS011;22617;43.690;27.956;2023-03-16T02:54:25;33.97;;;11.33;;
18695;SDS011;22617;43.690;27.956;2023-03-16T02:59:29;34.73;;;12.53;;
18695;SDS011;22617;43.690;27.956;2023-03-16T03:04:34;29.80;;;12.13;;
18695;SDS011;22617;43.690;27.956;2023-03-16T03:09:40;35.60;;;11.73;;
18695;SDS011;22617;43.690;27.956;2023-03-16T03:14:44;35.53;;;12.57;;
18695;SDS011;22617;43.690;27.956;2023-03-16T03:19:52;34.53;;;13.37;;
18695;SDS011;22617;43.690;27.956;2023-03-16T03:24:56;32.57;;;12.77;;
18695;SDS011;22617;43.690;27.956;2023-03-16T03:29:59;39.30;;;12.83;;
18695;SDS011;22617;43.690;27.956;2023-03-16T03:35:05;36.13;;;13.50;;
18695;SDS011;22617;43.690;27.956;2023-03-16T03:40:11;34.07;;;14.10;;
18695;SDS011;22617;43.690;27.956;2023-03-16T03:45:18;39.27;;;15.07;;
18695;SDS011;22617;43.690;27.956;2023-03-16T03:50:23;50.03;;;14.43;;
18695;SDS011;22617;43.690;27.956;2023-03-16T03:55:48;55.53;;;15.73;;
18695;SDS011;22617;43.690;27.956;2023-03-16T04:00:51;54.13;;;17.60;;
18695;SDS011;22617;43.690;27.956;2023-03-16T04:05:56;44.97;;;16.60;;
18695;SDS011;22617;43.690;27.956;2023-03-16T04:11:00;37.73;;;15.73;;
18695;SDS011;22617;43.690;27.956;2023-03-16T04:16:04;47.83;;;17.07;;
18695;SDS011;22617;43.690;27.956;2023-03-16T04:21:16;44.47;;;14.40;;
18695;SDS011;22617;43.690;27.956;2023-03-16T04:26:21;36.50;;;14.17;;
18695;SDS011;22617;43.690;27.956;2023-03-16T04:31:27;37.17;;;13.43;;
18695;SDS011;22617;43.690;27.956;2023-03-16T04:36:33;39.23;;;12.27;;
18695;SDS011;22617;43.690;27.956;2023-03-16T04:41:36;37.00;;;12.80;;
18695;SDS011;22617;43.690;27.956;2023-03-16T04:46:46;26.57;;;12.77;;
18695;SDS011;22617;43.690;27.956;2023-03-16T04:51:52;52.40;;;12.17;;
18695;SDS011;22617;43.690;27.956;2023-03-16T04:56:56;45.83;;;11.70;;
18695;SDS011;22617;43.690;27.956;2023-03-16T05:02:09;25.70;;;11.17;;
18695;SDS011;22617;43.690;27.956;2023-03-16T05:07:15;29.50;;;10.80;;
18695;SDS011;22617;43.690;27.956;2023-03-16T05:12:23;19.97;;;10.60;;
18695;SDS011;22617;43.690;27.956;2023-03-16T05:17:33;18.90;;;9.83;;
18695;SDS011;22617;43.690;27.956;2023-03-16T05:22:40;18.93;;;9.10;;
18695;SDS011;22617;43.690;27.956;2023-03-16T05:27:50;19.30;;;9.43;;
18695;SDS011;22617;43.690;27.956;2023-03-16T05:33:06;17.33;;;9.17;;
18695;SDS011;22617;43.690;27.956;2023-03-16T05:38:11;24.23;;;9.83;;
18695;SDS011;22617;43.690;27.956;2023-03-16T05:43:18;18.73;;;9.50;;
18695;SDS011;22617;43.690;27.956;2023-03-16T05:48:24;20.37;;;9.77;;
18695;SDS011;22617;43.690;27.956;2023-03-16T05:53:33;18.93;;;9.30;;
18695;SDS011;22617;43.690;27.956;2023-03-16T05:58:43;19.90;;;9.80;;
18695;SDS011;22617;43.690;27.956;2023-03-16T06:03:48;20.83;;;9.97;;
18695;SDS011;22617;43.690;27.956;2023-03-16T06:08:58;19.23;;;9.20;;
18695;SDS011;22617;43.690;27.956;2023-03-16T06:14:02;16.67;;;8.77;;
18695;SDS011;22617;43.690;27.956;2023-03-16T06:19:06;24.13;;;10.70;;
18695;SDS011;22617;43.690;27.956;2023-03-16T06:24:11;19.70;;;10.50;;
18695;SDS011;22617;43.690;27.956;2023-03-16T06:29:15;15.37;;;8.47;;
18695;SDS011;22617;43.690;27.956;2023-03-16T06:34:19;14.57;;;8.37;;
18695;SDS011;22617;43.690;27.956;2023-03-16T06:39:24;16.83;;;8.60;;
18695;SDS011;22617;43.690;27.956;2023-03-16T06:44:28;15.37;;;8.27;;
18695;SDS011;22617;43.690;27.956;2023-03-16T06:49:43;17.70;;;8.60;;
18695;SDS011;22617;43.690;27.956;2023-03-16T06:54:54;14.13;;;7.90;;
18695;SDS011;22617;43.690;27.956;2023-03-16T07:00:00;19.87;;;8.80;;
18695;SDS011;22617;43.690;27.956;2023-03-16T07:05:05;13.83;;;8.10;;
18695;SDS011;22617;43.690;27.956;2023-03-16T07:10:11;15.93;;;8.43;;
18695;SDS011;22617;43.690;27.956;2023-03-16T07:15:16;18.80;;;10.03;;
18695;SDS011;22617;43.690;27.956;2023-03-16T07:20:20;19.03;;;10.13;;
18695;SDS011;22617;43.690;27.956;2023-03-16T07:25:26;23.67;;;10.77;;
18695;SDS011;22617;43.690;27.956;2023-03-16T07:30:29;19.37;;;10.43;;
18695;SDS011;22617;43.690;27.956;2023-03-16T07:35:34;20.20;;;10.73;;
18695;SDS011;22617;43.690;27.956;2023-03-16T07:40:39;19.60;;;10.97;;
18695;SDS011;22617;43.690;27.956;2023-03-16T07:45:51;20.73;;;10.63;;
18695;SDS011;22617;43.690;27.956;2023-03-16T07:50:55;21.93;;;11.73;;
18695;SDS011;22617;43.690;27.956;2023-03-16T07:56:00;19.67;;;11.37;;
18695;SDS011;22617;43.690;27.956;2023-03-16T08:01:06;30.63;;;12.70;;
18695;SDS011;22617;43.690;27.956;2023-03-16T08:06:11;20.60;;;11.07;;
18695;SDS011;22617;43.690;27.956;2023-03-16T08:11:17;19.27;;;11.47;;
18695;SDS011;22617;43.690;27.956;2023-03-16T08:16:36;20.33;;;11.83;;
18695;SDS011;22617;43.690;27.956;2023-03-16T08:21:40;26.60;;;12.90;;
18695;SDS011;22617;43.690;27.956;2023-03-16T08:27:07;21.37;;;11.80;;
18695;SDS011;22617;43.690;27.956;2023-03-16T08:32:15;23.23;;;11.27;;
18695;SDS011;22617;43.690;27.956;2023-03-16T08:37:20;23.23;;;11.97;;
18695;SDS011;22617;43.690;27.956;2023-03-16T08:42:28;24.27;;;12.87;;
18695;SDS011;22617;43.690;27.956;2023-03-16T08:47:37;25.27;;;12.93;;
18695;SDS011;22617;43.690;27.956;2023-03-16T08:52:42;25.90;;;13.43;;
18695;SDS011;22617;43.690;27.956;2023-03-16T08:57:48;28.13;;;14.00;;
18695;SDS011;22617;43.690;27.956;2023-03-16T09:02:51;29.10;;;13.90;;
18695;SDS011;22617;43.690;27.956;2023-03-16T09:07:55;31.73;;;14.77;;
18695;SDS011;22617;43.690;27.956;2023-03-16T09:13:00;30.07;;;14.37;;
18695;SDS011;22617;43.690;27.956;2023-03-16T09:18:04;32.47;;;16.67;;
18695;SDS011;22617;43.690;27.956;2023-03-16T09:23:08;33.00;;;16.00;;
18695;SDS011;22617;43.690;27.956;2023-03-16T09:28:13;32.50;;;14.47;;
18695;SDS011;22617;43.690;27.956;2023-03-16T09:33:21;32.93;;;15.10;;
18695;SDS011;22617;43.690;27.956;2023-03-16T09:38:25;31.00;;;14.60;;
18695;SDS011;22617;43.690;27.956;2023-03-16T09:43:37;34.87;;;15.30;;
18695;SDS011;22617;43.690;27.956;2023-03-16T09:48:50;33.67;;;15.53;;
18695;SDS011;22617;43.690;27.956;2023-03-16T09:53:57;37.73;;;16.70;;
18695;SDS011;22617;43.690;27.956;2023-03-16T09:59:09;38.67;;;17.67;;
18695;SDS011;22617;43.690;27.956;2023-03-16T10:04:16;33.27;;;15.10;;
18695;SDS011;22617;43.690;27.956;2023-03-16T10:09:34;31.37;;;14.17;;
18695;SDS011;22617;43.690;27.956;2023-03-16T10:14:43;31.47;;;14.77;;
18695;SDS011;22617;43.690;27.956;2023-03-16T10:19:52;32.53;;;14.43;;
18695;SDS011;22617;43.690;27.956;2023-03-16T10:25:00;34.17;;;15.10;;
18695;SDS011;22617;43.690;27.956;2023-03-16T10:35:28;30.70;;;14.40;;
18695;SDS011;22617;43.690;27.956;2023-03-16T10:40:37;25.03;;;12.53;;
18695;SDS011;22617;43.690;27.956;2023-03-16T10:45:43;24.50;;;12.67;;
18695;SDS011;22617;43.690;27.956;2023-03-16T10:50:49;24.93;;;12.27;;
18695;SDS011;22617;43.690;27.956;2023-03-16T10:55:56;33.67;;;15.03;;
18695;SDS011;22617;43.690;27.956;2023-03-16T11:01:02;30.43;;;14.00;;
18695;SDS011;22617;43.690;27.956;2023-03-16T11:06:16;30.27;;;13.73;;
18695;SDS011;22617;43.690;27.956;2023-03-16T11:11:23;30.80;;;14.53;;
18695;SDS011;22617;43.690;27.956;2023-03-16T11:16:31;19.87;;;10.97;;
18695;SDS011;22617;43.690;27.956;2023-03-16T11:21:41;18.17;;;9.87;;
18695;SDS011;22617;43.690;27.956;2023-03-16T11:26:52;18.93;;;10.60;;
18695;SDS011;22617;43.690;27.956;2023-03-16T11:31:59;22.30;;;11.97;;
18695;SDS011;22617;43.690;27.956;2023-03-16T11:37:09;21.27;;;11.30;;
18695;SDS011;22617;43.690;27.956;2023-03-16T11:42:26;22.83;;;11.07;;
18695;SDS011;22617;43.690;27.956;2023-03-16T11:53:34;21.77;;;10.73;;
18695;SDS011;22617;43.690;27.956;2023-03-16T11:58:52;23.53;;;12.03;;
18695;SDS011;22617;43.690;27.956;2023-03-16T12:04:06;20.13;;;10.43;;
18695;SDS011;22617;43.690;27.956;2023-03-16T12:09:35;21.50;;;10.83;;
18695;SDS011;22617;43.690;27.956;2023-03-16T12:15:02;22.03;;;11.70;;
18695;SDS011;22617;43.690;27.956;2023-03-16T12:20:20;19.33;;;10.43;;
18695;SDS011;22617;43.690;27.956;2023-03-16T12:25:28;21.70;;;10.87;;
18695;SDS011;22617;43.690;27.956;2023-03-16T12:30:35;18.37;;;10.00;;
18695;SDS011;22617;43.690;27.956;2023-03-16T12:35:47;20.50;;;10.37;;
18695;SDS011;22617;43.690;27.956;2023-03-16T12:40:57;23.00;;;11.20;;
18695;SDS011;22617;43.690;27.956;2023-03-16T12:46:10;29.97;;;15.50;;
18695;SDS011;22617;43.690;27.956;2023-03-16T12:51:16;20.47;;;9.90;;
18695;SDS011;22617;43.690;27.956;2023-03-16T12:56:26;23.57;;;12.67;;
18695;SDS011;22617;43.690;27.956;2023-03-16T13:01:36;21.03;;;11.43;;
18695;SDS011;22617;43.690;27.956;2023-03-16T13:06:43;20.10;;;11.10;;
18695;SDS011;22617;43.690;27.956;2023-03-16T13:11:51;17.80;;;9.17;;
18695;SDS011;22617;43.690;27.956;2023-03-16T13:17:01;13.60;;;7.17;;
18695;SDS011;22617;43.690;27.956;2023-03-16T13:22:18;13.17;;;6.80;;
18695;SDS011;22617;43.690;27.956;2023-03-16T13:27:31;18.40;;;8.23;;
18695;SDS011;22617;43.690;27.956;2023-03-16T13:32:37;15.00;;;8.00;;
18695;SDS011;22617;43.690;27.956;2023-03-16T13:37:41;16.63;;;7.97;;
18695;SDS011;22617;43.690;27.956;2023-03-16T13:42:47;16.43;;;8.13;;
18695;SDS011;22617;43.690;27.956;2023-03-16T13:47:53;17.77;;;10.00;;
18695;SDS011;22617;43.690;27.956;2023-03-16T13:52:58;15.40;;;8.53;;
18695;SDS011;22617;43.690;27.956;2023-03-16T13:58:12;17.13;;;8.27;;
18695;SDS011;22617;43.690;27.956;2023-03-16T14:03:23;16.23;;;8.20;;
18695;SDS011;22617;43.690;27.956;2023-03-16T14:08:36;15.07;;;7.67;;
18695;SDS011;22617;43.690;27.956;2023-03-16T14:14:13;15.07;;;8.73;;
18695;SDS011;22617;43.690;27.956;2023-03-16T14:19:20;13.47;;;7.20;;
18695;SDS011;22617;43.690;27.956;2023-03-16T14:24:36;16.03;;;8.20;;
18695;SDS011;22617;43.690;27.956;2023-03-16T14:29:52;14.63;;;7.93;;
18695;SDS011;22617;43.690;27.956;2023-03-16T14:35:16;15.10;;;7.27;;
18695;SDS011;22617;43.690;27.956;2023-03-16T14:40:28;15.50;;;8.03;;
18695;SDS011;22617;43.690;27.956;2023-03-16T14:45:36;13.50;;;7.57;;
18695;SDS011;22617;43.690;27.956;2023-03-16T14:50:43;12.00;;;7.03;;
18695;SDS011;22617;43.690;27.956;2023-03-16T14:56:29;12.77;;;7.17;;
18695;SDS011;22617;43.690;27.956;2023-03-16T15:07:45;13.47;;;7.30;;
18695;SDS011;22617;43.690;27.956;2023-03-16T15:12:55;13.67;;;7.93;;
18695;SDS011;22617;43.690;27.956;2023-03-16T15:18:07;12.43;;;7.07;;
18695;SDS011;22617;43.690;27.956;2023-03-16T15:23:14;13.73;;;7.87;;
18695;SDS011;22617;43.690;27.956;2023-03-16T15:28:21;16.77;;;8.63;;
18695;SDS011;22617;43.690;27.956;2023-03-16T15:33:28;17.40;;;9.37;;
18695;SDS011;22617;43.690;27.956;2023-03-16T15:38:32;15.10;;;8.70;;
18695;SDS011;22617;43.690;27.956;2023-03-16T15:43:53;20.57;;;9.83;;
18695;SDS011;22617;43.690;27.956;2023-03-16T15:55:08;17.83;;;9.50;;
18695;SDS011;22617;43.690;27.956;2023-03-16T16:00:39;12.83;;;7.80;;
18695;SDS011;22617;43.690;27.956;2023-03-16T16:06:18;15.07;;;8.00;;
18695;SDS011;22617;43.690;27.956;2023-03-16T16:17:14;15.30;;;7.83;;
18695;SDS011;22617;43.690;27.956;2023-03-16T16:22:57;17.17;;;9.00;;
18695;SDS011;22617;43.690;27.956;2023-03-16T16:28:07;13.93;;;7.63;;
18695;SDS011;22617;43.690;27.956;2023-03-16T16:33:24;17.47;;;9.93;;
18695;SDS011;22617;43.690;27.956;2023-03-16T16:38:34;18.20;;;10.33;;
18695;SDS011;22617;43.690;27.956;2023-03-16T16:43:46;17.57;;;8.03;;
18695;SDS011;22617;43.690;27.956;2023-03-16T16:48:57;12.83;;;7.30;;
18695;SDS011;22617;43.690;27.956;2023-03-16T16:54:39;13.93;;;8.00;;
18695;SDS011;22617;43.690;27.956;2023-03-16T17:00:48;13.60;;;7.63;;
18695;SDS011;22617;43.690;27.956;2023-03-16T17:26:39;12.87;;;7.03;;
18695;SDS011;22617;43.690;27.956;2023-03-16T17:31:46;15.40;;;8.50;;
18695;SDS011;22617;43.690;27.956;2023-03-16T17:36:51;14.03;;;7.83;;
18695;SDS011;22617;43.690;27.956;2023-03-16T17:41:59;15.23;;;7.90;;
18695;SDS011;22617;43.690;27.956;2023-03-16T17:47:09;13.27;;;7.47;;
18695;SDS011;22617;43.690;27.956;2023-03-16T17:52:21;12.20;;;7.10;;
18695;SDS011;22617;43.690;27.956;2023-03-16T17:57:30;12.53;;;6.47;;
18695;SDS011;22617;43.690;27.956;2023-03-16T18:02:37;10.90;;;6.03;;
18695;SDS011;22617;43.690;27.956;2023-03-16T18:07:46;9.47;;;5.53;;
18695;SDS011;22617;43.690;27.956;2023-03-16T18:12:54;11.77;;;6.50;;
18695;SDS011;22617;43.690;27.956;2023-03-16T18:18:00;14.13;;;7.83;;
18695;SDS011;22617;43.690;27.956;2023-03-16T18:23:09;8.97;;;5.27;;
18695;SDS011;22617;43.690;27.956;2023-03-16T18:28:23;9.30;;;5.30;;
18695;SDS011;22617;43.690;27.956;2023-03-16T18:33:28;8.57;;;4.93;;
18695;SDS011;22617;43.690;27.956;2023-03-16T18:38:39;7.30;;;4.83;;
18695;SDS011;22617;43.690;27.956;2023-03-16T18:43:52;7.97;;;4.90;;
18695;SDS011;22617;43.690;27.956;2023-03-16T18:48:59;9.97;;;5.20;;
18695;SDS011;22617;43.690;27.956;2023-03-16T18:54:10;9.20;;;5.83;;
18695;SDS011;22617;43.690;27.956;2023-03-16T18:59:31;8.43;;;5.70;;
18695;SDS011;22617;43.690;27.956;2023-03-16T19:04:42;9.70;;;5.70;;
18695;SDS011;22617;43.690;27.956;2023-03-16T19:10:15;9.93;;;5.67;;
18695;SDS011;22617;43.690;27.956;2023-03-16T19:15:35;9.00;;;5.50;;
18695;SDS011;22617;43.690;27.956;2023-03-16T19:20:55;12.33;;;6.27;;
18695;SDS011;22617;43.690;27.956;2023-03-16T19:26:21;10.30;;;5.67;;
18695;SDS011;22617;43.690;27.956;2023-03-16T19:31:36;7.73;;;4.80;;
18695;SDS011;22617;43.690;27.956;2023-03-16T19:37:05;9.10;;;4.63;;
18695;SDS011;22617;43.690;27.956;2023-03-16T19:42:42;7.60;;;4.80;;
18695;SDS011;22617;43.690;27.956;2023-03-16T19:47:56;8.10;;;5.30;;
18695;SDS011;22617;43.690;27.956;2023-03-16T19:53:00;10.43;;;5.00;;
18695;SDS011;22617;43.690;27.956;2023-03-16T19:58:19;7.97;;;5.27;;
18695;SDS011;22617;43.690;27.956;2023-03-16T20:03:41;10.10;;;5.30;;
18695;SDS011;22617;43.690;27.956;2023-03-16T20:08:58;9.90;;;5.50;;
18695;SDS011;22617;43.690;27.956;2023-03-16T20:14:17;7.87;;;5.47;;
18695;SDS011;22617;43.690;27.956;2023-03-16T20:19:28;10.10;;;5.90;;
18695;SDS011;22617;43.690;27.956;2023-03-16T20:24:32;8.63;;;5.33;;
18695;SDS011;22617;43.690;27.956;2023-03-16T20:29:40;8.97;;;5.20;;
18695;SDS011;22617;43.690;27.956;2023-03-16T20:34:47;8.83;;;5.30;;
18695;SDS011;22617;43.690;27.956;2023-03-16T20:39:56;8.37;;;5.70;;
18695;SDS011;22617;43.690;27.956;2023-03-16T20:45:01;11.77;;;6.40;;
18695;SDS011;22617;43.690;27.956;2023-03-16T20:50:10;9.57;;;5.37;;
18695;SDS011;22617;43.690;27.956;2023-03-16T20:55:23;9.57;;;5.93;;
18695;SDS011;22617;43.690;27.956;2023-03-16T21:00:31;9.37;;;5.43;;
18695;SDS011;22617;43.690;27.956;2023-03-16T21:05:38;13.37;;;6.80;;
18695;SDS011;22617;43.690;27.956;2023-03-16T21:10:45;12.47;;;6.63;;
18695;SDS011;22617;43.690;27.956;2023-03-16T21:15:56;13.23;;;6.87;;
18695;SDS011;22617;43.690;27.956;2023-03-16T21:21:07;11.93;;;6.67;;
18695;SDS011;22617;43.690;27.956;2023-03-16T21:26:17;13.37;;;6.63;;
18695;SDS011;22617;43.690;27.956;2023-03-16T21:31:25;11.20;;;6.53;;
18695;SDS011;22617;43.690;27.956;2023-03-16T21:36:32;14.17;;;6.93;;
18695;SDS011;22617;43.690;27.956;2023-03-16T21:41:36;11.83;;;7.00;;
18695;SDS011;22617;43.690;27.956;2023-03-16T21:46:40;11.70;;;7.17;;
18695;SDS011;22617;43.690;27.956;2023-03-16T21:51:46;14.43;;;7.50;;
18695;SDS011;22617;43.690;27.956;2023-03-16T21:56:54;12.77;;;6.93;;
18695;SDS011;22617;43.690;27.956;2023-03-16T22:01:58;11.03;;;6.80;;
18695;SDS011;22617;43.690;27.956;2023-03-16T22:07:09;13.20;;;6.90;;
18695;SDS011;22617;43.690;27.956;2023-03-16T22:12:15;13.63;;;6.83;;
18695;SDS011;22617;43.690;27.956;2023-03-16T22:17:19;11.97;;;6.60;;
18695;SDS011;22617;43.690;27.956;2023-03-16T22:22:27;12.00;;;6.70;;
18695;SDS011;22617;43.690;27.956;2023-03-16T22:27:35;10.73;;;6.10;;
18695;SDS011;22617;43.690;27.956;2023-03-16T22:32:40;11.77;;;5.67;;
18695;SDS011;22617;43.690;27.956;2023-03-16T22:37:47;10.87;;;5.80;;
18695;SDS011;22617;43.690;27.956;2023-03-16T22:42:51;11.47;;;6.13;;
18695;SDS011;22617;43.690;27.956;2023-03-16T22:47:58;10.30;;;5.70;;
18695;SDS011;22617;43.690;27.956;2023-03-16T22:53:06;9.73;;;5.63;;
18695;SDS011;22617;43.690;27.956;2023-03-16T22:58:20;9.93;;;5.30;;
18695;SDS011;22617;43.690;27.956;2023-03-16T23:03:32;10.03;;;5.90;;
18695;SDS011;22617;43.690;27.956;2023-03-16T23:08:37;10.80;;;5.63;;
18695;SDS011;22617;43.690;27.956;2023-03-16T23:13:44;14.13;;;5.77;;
18695;SDS011;22617;43.690;27.956;2023-03-16T23:18:48;8.17;;;5.60;;
18695;SDS011;22617;43.690;27.956;2023-03-16T23:23:59;13.33;;;5.77;;
18695;SDS011;22617;43.690;27.956;2023-03-16T23:29:05;10.93;;;5.93;;
18695;SDS011;22617;43.690;27.956;2023-03-16T23:34:11;11.37;;;6.20;;
18695;SDS011;22617;43.690;27.956;2023-03-16T23:39:18;7.77;;;5.20;;
18695;SDS011;22617;43.690;27.956;2023-03-16T23:44:23;10.30;;;5.37;;
18695;SDS011;22617;43.690;27.956;2023-03-16T23:49:30;9.33;;;5.60;;
18695;SDS011;22617;43.690;27.956;2023-03-16T23:54:40;10.07;;;5.70;;
18695;SDS011;22617;43.690;27.956;2023-03-16T23:59:45;9.70;;;5.07;;
